createdAt,value
2022-08-14T00:00:34.621Z,53.93
2022-08-14T00:03:43.519Z,53.99
2022-08-14T00:06:48.876Z,53.87
2022-08-14T00:10:49.168Z,54.04
2022-08-14T00:13:08.841Z,54.22
2022-08-14T00:16:44.269Z,54.41
2022-08-14T00:19:24.468Z,54.55
2022-08-14T00:22:57.079Z,54.77
2022-08-14T00:25:42.408Z,54.74
2022-08-14T00:28:46.307Z,54.81
2022-08-14T00:31:53.902Z,54.87
2022-08-14T00:35:00.561Z,54.91
2022-08-14T00:38:07.057Z,55.11
2022-08-14T00:41:14.078Z,55.14
2022-08-14T00:44:21.536Z,55.23
2022-08-14T00:47:30.821Z,55.21
2022-08-14T00:50:37.917Z,55.34
2022-08-14T00:53:43.825Z,55.26
2022-08-14T00:56:50.256Z,55.43
2022-08-14T00:59:56.751Z,55.48
2022-08-14T01:03:03.277Z,55.60
2022-08-14T01:06:08.410Z,55.63
2022-08-14T01:09:15.946Z,55.58
2022-08-14T01:12:26.979Z,55.74
2022-08-14T01:15:31.798Z,55.82
2022-08-14T01:19:01.286Z,55.62
2022-08-14T01:22:01.406Z,55.47
2022-08-14T01:25:08.009Z,55.49
2022-08-14T01:28:46.440Z,55.60
2022-08-14T01:31:29.255Z,55.58
2022-08-14T01:35:17.357Z,55.54
2022-08-14T01:37:44.004Z,55.54
2022-08-14T01:40:50.207Z,55.41
2022-08-14T01:44:32.572Z,55.24
2022-08-14T01:47:22.489Z,55.22
2022-08-14T01:50:29.569Z,55.30
2022-08-14T01:53:36.340Z,55.46
2022-08-14T01:56:46.639Z,55.64
2022-08-14T01:59:53.625Z,55.87
2022-08-14T02:02:59.289Z,56.21
2022-08-14T02:06:32.425Z,56.40
2022-08-14T02:09:19.204Z,56.51
2022-08-14T02:12:26.331Z,56.69
2022-08-14T02:15:31.816Z,56.98
2022-08-14T02:18:37.525Z,57.29
2022-08-14T02:21:48.720Z,57.66
2022-08-14T02:24:52.130Z,57.96
2022-08-14T02:28:23.723Z,58.18
2022-08-14T02:31:05.648Z,58.53
2022-08-14T02:34:26.131Z,58.72
2022-08-14T02:37:37.455Z,58.80
2022-08-14T02:40:37.448Z,58.72
2022-08-14T02:43:48.346Z,58.74
2022-08-14T02:46:54.744Z,58.66
2022-08-14T02:50:02.364Z,58.66
2022-08-14T02:53:08.623Z,58.74
2022-08-14T02:56:30.480Z,58.72
2022-08-14T02:59:17.022Z,58.71
2022-08-14T03:02:49.500Z,58.61
2022-08-14T03:05:26.133Z,58.56
2022-08-14T03:08:20.428Z,58.47
2022-08-14T03:11:17.820Z,58.29
2022-08-14T03:14:04.976Z,58.24
2022-08-14T03:16:56.966Z,58.22
2022-08-14T03:19:43.542Z,58.33
2022-08-14T03:22:36.687Z,58.46
2022-08-14T03:25:31.686Z,58.58
2022-08-14T03:28:39.424Z,58.63
2022-08-14T03:31:47.547Z,58.52
2022-08-14T03:34:55.450Z,58.62
2022-08-14T03:39:12.897Z,58.47
2022-08-14T03:41:09.013Z,58.33
2022-08-14T03:45:25.240Z,58.42
2022-08-14T03:47:28.005Z,58.41
2022-08-14T03:50:34.970Z,58.19
2022-08-14T03:53:42.549Z,57.88
2022-08-14T03:56:51.503Z,57.79
2022-08-14T03:59:59.561Z,57.25
2022-08-14T04:03:07.221Z,56.83
2022-08-14T04:06:06.244Z,56.68
2022-08-14T04:08:53.447Z,56.38
2022-08-14T04:11:47.808Z,56.22
2022-08-14T04:14:37.105Z,55.95
2022-08-14T04:17:28.612Z,55.31
2022-08-14T04:20:25.686Z,54.71
2022-08-14T04:23:18.439Z,53.85
2022-08-14T04:26:08.516Z,52.93
2022-08-14T04:29:15.032Z,52.31
2022-08-14T04:32:57.475Z,51.44
2022-08-14T04:35:24.508Z,51.06
2022-08-14T04:38:49.412Z,50.72
2022-08-14T04:42:14.193Z,49.55
2022-08-14T04:45:22.254Z,48.91
2022-08-14T04:48:39.434Z,48.88
2022-08-14T04:51:46.673Z,48.36
2022-08-14T04:54:46.024Z,47.77
2022-08-14T04:57:54.738Z,47.31
2022-08-14T05:01:01.200Z,47.44
2022-08-14T05:04:07.123Z,47.01
2022-08-14T05:07:13.619Z,46.22
2022-08-14T05:10:22.109Z,45.75
2022-08-14T05:13:24.719Z,45.19
2022-08-14T05:16:32.055Z,45.12
2022-08-14T05:19:44.669Z,44.68
2022-08-14T05:22:42.049Z,44.71
2022-08-14T05:25:47.416Z,43.51
2022-08-14T05:28:56.250Z,43.32
2022-08-14T05:32:04.335Z,42.56
2022-08-14T05:35:10.473Z,43.24
2022-08-14T05:38:31.378Z,42.82
2022-08-14T05:41:52.640Z,42.39
2022-08-14T05:44:35.020Z,42.18
2022-08-14T05:47:42.138Z,41.79
2022-08-14T05:50:50.333Z,41.82
2022-08-14T05:54:01.476Z,41.81
2022-08-14T05:56:57.017Z,40.38
2022-08-14T05:59:50.555Z,40.09
2022-08-14T06:02:58.190Z,39.85
2022-08-14T06:06:08.256Z,40.49
2022-08-14T06:09:17.372Z,40.60
2022-08-14T06:12:55.902Z,40.31
2022-08-14T06:15:32.658Z,40.70
2022-08-14T06:18:38.005Z,40.29
2022-08-14T06:21:44.840Z,39.86
2022-08-14T06:24:51.038Z,39.27
2022-08-14T06:28:03.849Z,39.70
2022-08-14T06:31:10.808Z,39.25
2022-08-14T06:35:03.560Z,39.41
2022-08-14T06:37:24.879Z,38.94
2022-08-14T06:40:34.212Z,38.75
2022-08-14T06:43:45.290Z,38.83
2022-08-14T06:46:49.428Z,39.47
2022-08-14T06:49:58.134Z,39.30
2022-08-14T06:53:03.530Z,39.52
2022-08-14T06:56:11.405Z,38.64
2022-08-14T06:59:20.003Z,38.64
2022-08-14T07:02:43.580Z,38.44
2022-08-14T07:05:55.650Z,38.27
2022-08-14T07:08:59.198Z,37.48
2022-08-14T07:12:07.895Z,37.19
2022-08-14T07:15:13.855Z,37.16
2022-08-14T07:18:19.849Z,36.07
2022-08-14T07:21:26.694Z,35.98
2022-08-14T07:24:32.740Z,34.66
2022-08-14T07:27:38.405Z,34.42
2022-08-14T07:30:50.661Z,35.12
2022-08-14T07:34:00.358Z,35.12
2022-08-14T07:37:07.007Z,33.83
2022-08-14T07:40:12.274Z,34.30
2022-08-14T07:43:20.362Z,34.30
2022-08-14T07:46:30.803Z,33.94
2022-08-14T07:49:36.253Z,34.18
2022-08-14T07:52:43.588Z,34.10
2022-08-14T07:56:08.859Z,33.41
2022-08-14T07:58:58.290Z,33.78
2022-08-14T08:02:04.425Z,34.44
2022-08-14T08:05:10.999Z,34.16
2022-08-14T08:08:26.877Z,34.16
2022-08-14T08:11:26.596Z,35.19
2022-08-14T08:14:33.222Z,34.65
2022-08-14T08:17:42.499Z,34.67
2022-08-14T08:20:52.143Z,34.03
2022-08-14T08:23:57.548Z,34.27
2022-08-14T08:27:03.375Z,34.51
2022-08-14T08:30:20.217Z,34.44
2022-08-14T08:33:24.717Z,35.30
2022-08-14T08:36:31.357Z,34.34
2022-08-14T08:40:01.120Z,34.52
2022-08-14T08:42:44.952Z,33.89
2022-08-14T08:45:51.862Z,33.43
2022-08-14T08:49:05.889Z,33.83
2022-08-14T08:52:25.294Z,33.18
2022-08-14T08:55:24.749Z,31.35
2022-08-14T08:58:33.007Z,28.72
2022-08-14T09:01:45.855Z,29.45
2022-08-14T09:04:57.709Z,28.04
2022-08-14T09:08:03.565Z,27.86
2022-08-14T09:11:19.363Z,27.34
2022-08-14T09:14:16.772Z,27.98
2022-08-14T09:17:18.219Z,28.83
2022-08-14T09:20:30.652Z,28.52
2022-08-14T09:23:35.092Z,27.06
2022-08-14T09:26:40.382Z,26.93
2022-08-14T09:29:54.158Z,26.57
2022-08-14T09:33:22.751Z,26.69
2022-08-14T09:36:53.359Z,26.74
2022-08-14T09:40:20.877Z,27.14
2022-08-14T09:43:44.362Z,26.59
2022-08-14T09:46:37.980Z,26.80
2022-08-14T09:49:53.422Z,26.82
2022-08-14T09:53:18.397Z,26.91
2022-08-14T09:56:11.546Z,26.57
2022-08-14T09:59:32.164Z,27.71
2022-08-14T10:02:45.668Z,27.04
2022-08-14T10:05:52.241Z,27.27
2022-08-14T10:09:12.056Z,27.84
2022-08-14T10:12:18.985Z,27.10
2022-08-14T10:15:37.470Z,27.94
2022-08-14T10:18:42.522Z,27.25
2022-08-14T10:23:13.738Z,26.42
2022-08-14T10:24:59.978Z,25.69
2022-08-14T10:28:39.600Z,26.37
2022-08-14T10:31:40.350Z,26.50
2022-08-14T10:34:52.480Z,25.28
2022-08-14T10:38:07.228Z,24.88
2022-08-14T10:41:31.884Z,24.60
2022-08-14T10:44:36.403Z,24.69
2022-08-14T10:48:08.834Z,23.83
2022-08-14T10:50:59.067Z,24.25
2022-08-14T10:54:16.531Z,23.26
2022-08-14T10:57:43.337Z,24.09
2022-08-14T11:00:49.264Z,24.41
2022-08-14T11:03:57.744Z,23.65
2022-08-14T11:07:11.329Z,23.36
2022-08-14T11:10:22.652Z,24.12
2022-08-14T11:13:38.391Z,24.19
2022-08-14T11:16:53.317Z,24.14
2022-08-14T11:19:53.713Z,24.99
2022-08-14T11:23:01.778Z,24.04
2022-08-14T11:26:08.689Z,24.76
2022-08-14T11:29:16.293Z,24.79
2022-08-14T11:32:22.705Z,24.71
2022-08-14T11:35:37.028Z,24.67
2022-08-14T11:38:38.923Z,24.11
2022-08-14T11:41:56.028Z,24.70
2022-08-14T11:44:56.492Z,24.68
2022-08-14T11:48:12.556Z,25.03
2022-08-14T11:51:09.821Z,25.34
2022-08-14T11:54:20.140Z,25.25
2022-08-14T11:57:30.930Z,25.82
2022-08-14T12:00:45.979Z,24.07
2022-08-14T12:03:57.632Z,23.11
2022-08-14T12:07:09.900Z,23.65
2022-08-14T12:10:26.299Z,22.39
2022-08-14T12:13:34.853Z,23.50
2022-08-14T12:16:42.512Z,22.39
2022-08-14T12:20:05.095Z,22.85
2022-08-14T12:23:11.386Z,23.09
2022-08-14T12:26:39.095Z,22.91
2022-08-14T12:29:32.203Z,22.61
2022-08-14T12:32:39.756Z,22.35
2022-08-14T12:35:58.296Z,22.29
2022-08-14T12:39:04.274Z,22.61
2022-08-14T12:42:34.618Z,23.03
2022-08-14T12:45:26.742Z,22.71
2022-08-14T12:48:35.612Z,22.83
2022-08-14T12:51:42.830Z,23.12
2022-08-14T12:55:01.411Z,22.78
2022-08-14T12:58:01.978Z,22.91
2022-08-14T13:01:16.803Z,23.70
2022-08-14T13:04:28.444Z,23.84
2022-08-14T13:07:33.406Z,23.86
2022-08-14T13:10:46.589Z,24.20
2022-08-14T13:13:47.264Z,23.78
2022-08-14T13:16:58.482Z,24.04
2022-08-14T13:20:10.250Z,24.21
2022-08-14T13:23:14.805Z,24.25
2022-08-14T13:26:22.375Z,24.68
2022-08-14T13:29:31.458Z,24.84
2022-08-14T13:32:39.645Z,25.38
2022-08-14T13:35:45.386Z,25.48
2022-08-14T13:38:52.319Z,25.28
2022-08-14T13:41:59.058Z,25.52
2022-08-14T13:45:00.468Z,25.86
2022-08-14T13:48:06.058Z,26.02
2022-08-14T13:51:11.320Z,26.05
2022-08-14T13:54:18.866Z,25.40
2022-08-14T13:57:30.235Z,25.15
2022-08-14T14:00:52.806Z,25.46
2022-08-14T14:03:44.357Z,25.54
2022-08-14T14:06:51.130Z,25.50
2022-08-14T14:10:01.186Z,25.70
2022-08-14T14:13:08.320Z,25.79
2022-08-14T14:16:21.791Z,26.08
2022-08-14T14:19:22.490Z,26.35
2022-08-14T14:22:35.755Z,26.50
2022-08-14T14:25:46.049Z,26.91
2022-08-14T14:28:45.854Z,30.20
2022-08-14T14:31:51.228Z,30.37
2022-08-14T14:34:49.900Z,31.22
2022-08-14T14:37:57.505Z,30.39
2022-08-14T14:41:05.718Z,29.68
2022-08-14T14:44:15.928Z,30.33
2022-08-14T14:47:24.460Z,30.36
2022-08-14T14:50:30.676Z,28.18
2022-08-14T14:53:39.691Z,28.40
2022-08-14T14:56:49.689Z,28.35
2022-08-14T14:59:52.955Z,28.98
2022-08-14T15:03:03.671Z,29.29
2022-08-14T15:06:10.358Z,29.39
2022-08-14T15:09:17.883Z,28.83
2022-08-14T15:12:55.681Z,28.91
2022-08-14T15:15:32.903Z,27.84
2022-08-14T15:18:41.927Z,28.26
2022-08-14T15:21:46.389Z,29.08
2022-08-14T15:24:53.061Z,29.51
2022-08-14T15:27:58.725Z,29.53
2022-08-14T15:30:59.393Z,29.72
2022-08-14T15:34:43.496Z,29.66
2022-08-14T15:36:58.235Z,29.75
2022-08-14T15:39:44.568Z,29.87
2022-08-14T15:42:45.225Z,29.72
2022-08-14T15:45:50.774Z,29.98
2022-08-14T15:48:58.165Z,30.18
2022-08-14T15:52:06.087Z,29.74
2022-08-14T15:55:15.061Z,29.78
2022-08-14T15:58:22.278Z,29.75
2022-08-14T16:01:52.887Z,29.83
2022-08-14T16:04:35.832Z,29.93
2022-08-14T16:07:43.428Z,30.14
2022-08-14T16:10:53.288Z,30.12
2022-08-14T16:13:59.587Z,30.12
2022-08-14T16:17:08.627Z,30.50
2022-08-14T16:30:49.499Z,33.79
2022-08-14T16:34:00.015Z,34.08
2022-08-14T16:36:59.445Z,34.30
2022-08-14T16:40:05.663Z,34.74
2022-08-14T16:40:23.868Z,31.02
2022-08-14T16:43:12.906Z,34.84
2022-08-14T16:46:00.877Z,35.04
2022-08-14T16:49:07.414Z,35.22
2022-08-14T16:52:26.426Z,35.22
2022-08-14T16:55:30.163Z,34.83
2022-08-14T16:58:30.960Z,34.60
2022-08-14T17:01:37.752Z,34.22
2022-08-14T17:04:45.343Z,33.71
2022-08-14T17:07:53.312Z,33.49
2022-08-14T17:11:10.004Z,33.49
2022-08-14T17:14:10.937Z,33.63
2022-08-14T17:17:16.365Z,33.63
2022-08-14T17:20:39.390Z,33.61
2022-08-14T17:23:34.764Z,33.59
2022-08-14T17:27:04.139Z,33.60
2022-08-14T17:30:32.422Z,33.79
2022-08-14T17:33:27.049Z,34.01
2022-08-14T17:36:36.611Z,34.15
2022-08-14T17:39:42.022Z,34.20
2022-08-14T17:43:06.608Z,34.30
2022-08-14T17:46:17.229Z,34.43
2022-08-14T17:49:25.833Z,34.63
2022-08-14T17:52:40.636Z,34.58
2022-08-14T17:56:01.718Z,34.61
2022-08-14T17:58:50.531Z,34.28
2022-08-14T18:01:56.636Z,34.52
2022-08-14T18:05:03.248Z,34.90
2022-08-14T18:08:31.982Z,34.90
2022-08-14T18:11:19.894Z,35.20
2022-08-14T18:14:32.047Z,36.40
2022-08-14T18:17:35.278Z,37.50
2022-08-14T18:21:23.472Z,37.22
2022-08-14T18:23:51.681Z,37.23
2022-08-14T18:27:01.833Z,36.92
2022-08-14T18:30:32.108Z,36.48
2022-08-14T18:33:33.160Z,36.26
2022-08-14T18:37:17.628Z,35.98
2022-08-14T18:40:38.282Z,35.89
2022-08-14T18:44:00.821Z,35.95
2022-08-14T18:47:32.634Z,35.74
2022-08-14T18:50:41.428Z,35.91
2022-08-14T18:53:55.751Z,35.83
2022-08-14T18:57:20.167Z,35.96
2022-08-14T19:00:51.376Z,36.00
2022-08-14T19:04:01.815Z,36.29
2022-08-14T19:07:08.935Z,36.53
2022-08-14T19:10:22.874Z,36.68
2022-08-14T19:13:48.205Z,36.87
2022-08-14T19:16:53.580Z,37.08
2022-08-14T19:19:53.157Z,37.16
2022-08-14T19:23:00.772Z,37.35
2022-08-14T19:26:34.083Z,37.45
2022-08-14T19:29:41.102Z,37.48
2022-08-14T19:32:53.029Z,37.51
2022-08-14T19:36:00.419Z,37.59
2022-08-14T19:39:13.966Z,37.52
2022-08-14T19:42:27.872Z,37.62
2022-08-14T19:45:30.076Z,37.53
2022-08-14T19:48:37.476Z,37.58
2022-08-14T19:51:43.897Z,37.65
2022-08-14T19:54:51.416Z,37.65
2022-08-14T19:57:58.785Z,37.68
2022-08-14T20:01:11.503Z,37.76
2022-08-14T20:04:45.389Z,37.71
2022-08-14T20:07:58.863Z,37.75
2022-08-14T20:11:05.638Z,37.85
2022-08-14T20:13:54.151Z,37.89
2022-08-14T20:17:06.726Z,38.01
2022-08-14T20:20:13.364Z,38.09
2022-08-14T20:23:37.875Z,38.12
2022-08-14T20:26:39.217Z,38.30
2022-08-14T20:29:46.945Z,38.20
2022-08-14T20:33:07.515Z,38.21
2022-08-14T20:36:14.031Z,38.25
2022-08-14T20:39:24.913Z,38.34
2022-08-14T20:42:52.735Z,38.31
2022-08-14T20:46:05.462Z,38.19
2022-08-14T20:49:25.465Z,38.18
2022-08-14T20:52:31.654Z,38.17
2022-08-14T20:55:41.805Z,38.27
2022-08-14T20:58:54.713Z,38.22
2022-08-14T21:02:28.747Z,38.19
2022-08-14T21:05:19.371Z,38.16
2022-08-14T21:08:25.764Z,38.24
2022-08-14T21:11:35.044Z,38.14
2022-08-14T21:14:46.508Z,38.03
2022-08-14T21:17:48.474Z,37.99
2022-08-14T21:20:55.651Z,37.86
2022-08-14T21:24:07.985Z,37.83
2022-08-14T21:27:20.133Z,37.77
2022-08-14T21:30:21.295Z,37.85
2022-08-14T21:33:29.731Z,37.75
2022-08-14T21:36:37.195Z,37.81
2022-08-14T21:39:43.648Z,37.72
2022-08-14T21:42:48.998Z,37.84
2022-08-14T21:45:55.843Z,37.91
2022-08-14T21:49:01.335Z,37.89
2022-08-14T21:52:49.408Z,37.99
2022-08-14T21:55:24.692Z,38.03
2022-08-14T21:58:53.259Z,37.89
2022-08-14T22:01:59.410Z,38.03
2022-08-14T22:04:49.985Z,38.16
2022-08-14T22:07:49.657Z,38.24
2022-08-14T22:11:00.237Z,38.26
2022-08-14T22:14:26.228Z,38.31
2022-08-14T22:17:16.196Z,38.39
2022-08-14T22:20:22.820Z,38.54
2022-08-14T22:23:28.415Z,38.58
2022-08-14T22:26:35.392Z,38.65
2022-08-14T22:29:44.241Z,38.68
2022-08-14T22:32:57.394Z,38.72
2022-08-14T22:35:58.799Z,38.81
2022-08-14T22:39:04.480Z,38.87
2022-08-14T22:42:21.148Z,38.92
2022-08-14T22:45:21.719Z,38.88
2022-08-14T22:48:29.481Z,38.92
2022-08-14T22:51:40.642Z,38.94
2022-08-14T22:54:52.520Z,39.03
2022-08-14T22:57:49.916Z,39.11
2022-08-14T23:00:55.667Z,39.15
2022-08-14T23:04:01.379Z,39.02
2022-08-14T23:07:22.099Z,39.04
2022-08-14T23:10:33.411Z,38.86
2022-08-14T23:13:30.724Z,38.91
2022-08-14T23:16:35.696Z,38.85
2022-08-14T23:19:41.579Z,39.01
2022-08-14T23:22:48.347Z,38.98
2022-08-14T23:25:59.892Z,39.08
2022-08-14T23:29:03.605Z,39.05
2022-08-14T23:32:15.690Z,39.05
2022-08-14T23:35:20.907Z,39.16
2022-08-14T23:38:30.592Z,39.25
2022-08-14T23:41:45.874Z,39.29
2022-08-14T23:44:45.830Z,39.41
2022-08-14T23:47:51.888Z,39.50
2022-08-14T23:50:57.450Z,39.45
2022-08-14T23:54:06.276Z,39.55
2022-08-14T23:57:13.601Z,39.63
